createdAt,value
2022-11-07T00:00:09.452Z,38.07
2022-11-07T00:01:09.437Z,37.88
2022-11-07T00:02:09.533Z,38.09
2022-11-07T00:03:09.490Z,38.09
2022-11-07T00:04:09.404Z,38.18
2022-11-07T00:05:09.391Z,38.29
2022-11-07T00:06:09.385Z,38.89
2022-11-07T00:07:09.370Z,38.09
2022-11-07T00:08:09.357Z,38.89
2022-11-07T00:09:09.349Z,38.39
2022-11-07T00:10:09.336Z,38.78
2022-11-07T00:11:09.325Z,38.59
2022-11-07T00:12:09.467Z,38.89
2022-11-07T00:13:09.302Z,38.39
2022-11-07T00:14:09.293Z,38.09
2022-11-07T00:15:09.279Z,38.09
2022-11-07T00:16:09.269Z,38.09
2022-11-07T00:17:09.259Z,38.59
2022-11-07T00:18:09.285Z,38.09
2022-11-07T00:19:09.238Z,38.29
2022-11-07T00:20:09.227Z,38.29
2022-11-07T00:21:09.216Z,38.09
2022-11-07T00:22:09.204Z,38.09
2022-11-07T00:23:09.192Z,38.39
2022-11-07T00:24:09.211Z,38.29
2022-11-07T00:25:09.170Z,38.59
2022-11-07T00:26:09.159Z,38.18
2022-11-07T00:27:09.199Z,38.18
2022-11-07T00:28:09.155Z,38.29
2022-11-07T00:29:09.125Z,38.48
2022-11-07T00:30:09.130Z,38.48
2022-11-07T00:31:09.112Z,38.68
2022-11-07T00:32:09.092Z,38.48
2022-11-07T00:33:09.083Z,38.89
2022-11-07T00:34:09.070Z,38.29
2022-11-07T00:35:09.057Z,38.68
2022-11-07T00:36:09.054Z,38.59
2022-11-07T00:37:09.036Z,38.29
2022-11-07T00:38:09.027Z,38.48
2022-11-07T00:39:09.017Z,38.48
2022-11-07T00:40:09.005Z,38.48
2022-11-07T00:41:08.992Z,38.48
2022-11-07T00:42:08.986Z,38.46
2022-11-07T00:43:08.972Z,38.78
2022-11-07T00:44:08.978Z,38.18
2022-11-07T00:45:08.951Z,38.48
2022-11-07T00:46:08.938Z,38.29
2022-11-07T00:47:08.925Z,38.59
2022-11-07T00:48:08.934Z,38.78
2022-11-07T00:49:08.903Z,38.39
2022-11-07T00:50:08.891Z,38.78
2022-11-07T00:51:08.886Z,38.29
2022-11-07T00:52:08.873Z,38.59
2022-11-07T00:53:08.859Z,38.48
2022-11-07T00:54:08.854Z,38.68
2022-11-07T00:55:08.835Z,38.48
2022-11-07T00:56:08.826Z,38.39
2022-11-07T00:57:08.814Z,38.48
2022-11-07T00:58:13.561Z,38.48
2022-11-07T00:59:09.838Z,38.67
2022-11-07T01:00:08.799Z,38.48
2022-11-07T01:01:08.771Z,38.59
2022-11-07T01:02:08.877Z,38.68
2022-11-07T01:03:08.748Z,38.68
2022-11-07T01:04:08.738Z,38.68
2022-11-07T01:05:08.732Z,38.27
2022-11-07T01:06:08.714Z,38.48
2022-11-07T01:07:08.706Z,38.78
2022-11-07T01:08:08.693Z,38.78
2022-11-07T01:09:08.682Z,38.48
2022-11-07T01:10:08.671Z,38.78
2022-11-07T01:11:08.665Z,38.68
2022-11-07T01:12:08.648Z,38.48
2022-11-07T01:13:08.635Z,38.59
2022-11-07T01:14:08.626Z,38.29
2022-11-07T01:15:08.619Z,38.86
2022-11-07T01:16:08.628Z,38.48
2022-11-07T01:17:08.599Z,38.29
2022-11-07T01:18:08.582Z,38.48
2022-11-07T01:19:08.574Z,38.78
2022-11-07T01:20:08.561Z,38.68
2022-11-07T01:21:12.196Z,38.18
2022-11-07T01:22:09.542Z,38.78
2022-11-07T01:23:08.525Z,38.68
2022-11-07T01:24:08.514Z,38.48
2022-11-07T01:25:08.505Z,38.59
2022-11-07T01:26:08.492Z,38.48
2022-11-07T01:27:08.482Z,38.48
2022-11-07T01:28:08.485Z,38.68
2022-11-07T01:29:08.460Z,38.56
2022-11-07T01:30:08.449Z,38.68
2022-11-07T01:31:08.438Z,38.78
2022-11-07T01:32:08.445Z,38.48
2022-11-07T01:33:08.415Z,38.39
2022-11-07T01:34:08.435Z,38.68
2022-11-07T01:35:08.394Z,38.48
2022-11-07T01:36:08.383Z,38.48
2022-11-07T01:37:08.372Z,38.48
2022-11-07T01:38:08.360Z,38.48
2022-11-07T01:39:08.351Z,38.78
2022-11-07T01:40:08.358Z,38.59
2022-11-07T01:41:08.326Z,38.59
2022-11-07T01:42:08.322Z,38.78
2022-11-07T01:43:08.304Z,38.68
2022-11-07T01:44:08.297Z,38.59
2022-11-07T01:45:08.285Z,38.39
2022-11-07T01:46:08.277Z,38.48
2022-11-07T01:47:08.260Z,38.39
2022-11-07T01:48:08.274Z,38.29
2022-11-07T01:49:08.242Z,38.29
2022-11-07T01:50:08.228Z,38.29
2022-11-07T01:51:08.217Z,38.39
2022-11-07T01:52:08.211Z,37.79
2022-11-07T01:53:08.193Z,38.29
2022-11-07T01:54:08.183Z,38.27
2022-11-07T01:55:08.173Z,37.88
2022-11-07T01:56:08.160Z,38.18
2022-11-07T01:57:08.149Z,38.29
2022-11-07T01:58:08.150Z,37.97
2022-11-07T01:59:08.128Z,37.98
2022-11-07T02:00:08.117Z,38.37
2022-11-07T02:01:08.106Z,38.48
2022-11-07T02:02:08.244Z,37.77
2022-11-07T02:03:08.083Z,37.77
2022-11-07T02:04:08.125Z,37.98
2022-11-07T02:05:08.062Z,37.88
2022-11-07T02:06:08.051Z,37.87
2022-11-07T02:07:08.039Z,37.79
2022-11-07T02:08:08.030Z,37.87
2022-11-07T02:09:08.018Z,37.97
2022-11-07T02:10:08.040Z,38.17
2022-11-07T02:11:07.996Z,38.07
2022-11-07T02:12:07.984Z,37.87
2022-11-07T02:13:07.973Z,38.07
2022-11-07T02:14:07.961Z,37.87
2022-11-07T02:15:07.952Z,38.09
2022-11-07T02:16:07.946Z,37.87
2022-11-07T02:17:07.929Z,38.07
2022-11-07T02:18:07.917Z,37.87
2022-11-07T02:19:07.906Z,37.87
2022-11-07T02:20:07.912Z,37.97
2022-11-07T02:21:07.887Z,37.97
2022-11-07T02:22:07.883Z,37.87
2022-11-07T02:23:07.862Z,38.37
2022-11-07T02:24:07.849Z,37.77
2022-11-07T02:25:07.840Z,37.97
2022-11-07T02:26:07.828Z,37.97
2022-11-07T02:27:07.817Z,38.27
2022-11-07T02:28:07.812Z,38.07
2022-11-07T02:29:07.796Z,38.27
2022-11-07T02:30:07.784Z,38.27
2022-11-07T02:31:07.772Z,38.07
2022-11-07T02:32:07.761Z,38.07
2022-11-07T02:33:07.751Z,37.97
2022-11-07T02:34:07.746Z,38.27
2022-11-07T02:35:07.729Z,37.97
2022-11-07T02:36:07.734Z,38.27
2022-11-07T02:37:07.707Z,37.97
2022-11-07T02:38:07.695Z,37.97
2022-11-07T02:39:07.684Z,37.97
2022-11-07T02:40:07.695Z,37.97
2022-11-07T02:41:07.662Z,38.45
2022-11-07T02:42:07.650Z,37.97
2022-11-07T02:43:07.639Z,38.27
2022-11-07T02:44:07.630Z,37.97
2022-11-07T02:45:07.617Z,38.27
2022-11-07T02:46:07.635Z,38.07
2022-11-07T02:47:07.596Z,38.17
2022-11-07T02:48:07.584Z,38.37
2022-11-07T02:49:07.574Z,38.07
2022-11-07T02:50:07.562Z,38.27
2022-11-07T02:51:07.551Z,38.07
2022-11-07T02:52:07.588Z,37.87
2022-11-07T02:53:07.529Z,38.05
2022-11-07T02:54:07.519Z,37.97
2022-11-07T02:55:07.508Z,38.17
2022-11-07T02:56:07.500Z,37.85
2022-11-07T02:57:07.484Z,38.17
2022-11-07T02:58:07.482Z,37.85
2022-11-07T02:59:07.465Z,38.17
2022-11-07T03:00:07.456Z,37.97
2022-11-07T03:01:07.440Z,37.77
2022-11-07T03:02:07.654Z,37.97
2022-11-07T03:03:07.419Z,37.87
2022-11-07T03:04:07.413Z,37.87
2022-11-07T03:05:07.395Z,37.87
2022-11-07T03:06:07.386Z,37.77
2022-11-07T03:07:07.375Z,37.97
2022-11-07T03:08:07.385Z,37.77
2022-11-07T03:09:07.353Z,37.87
2022-11-07T03:10:07.378Z,37.77
2022-11-07T03:11:07.330Z,37.87
2022-11-07T03:12:07.320Z,37.67
2022-11-07T03:13:07.307Z,37.67
2022-11-07T03:14:07.296Z,37.77
2022-11-07T03:15:07.340Z,37.67
2022-11-07T03:16:07.280Z,37.77
2022-11-07T03:17:07.265Z,37.77
2022-11-07T03:18:07.252Z,37.77
2022-11-07T03:19:07.241Z,37.97
2022-11-07T03:20:07.230Z,37.87
2022-11-07T03:21:07.219Z,37.65
2022-11-07T03:22:07.226Z,37.77
2022-11-07T03:23:07.197Z,37.87
2022-11-07T03:24:07.204Z,37.87
2022-11-07T03:25:07.189Z,37.67
2022-11-07T03:26:07.166Z,37.87
2022-11-07T03:27:07.153Z,38.27
2022-11-07T03:28:07.171Z,37.87
2022-11-07T03:29:07.130Z,37.87
2022-11-07T03:30:07.119Z,37.87
2022-11-07T03:31:07.109Z,38.17
2022-11-07T03:32:07.096Z,37.77
2022-11-07T03:33:07.087Z,37.87
2022-11-07T03:34:07.084Z,37.77
2022-11-07T03:35:07.065Z,37.87
2022-11-07T03:36:07.053Z,37.85
2022-11-07T03:37:07.042Z,37.77
2022-11-07T03:38:07.030Z,37.77
2022-11-07T03:39:07.020Z,37.87
2022-11-07T03:40:07.034Z,37.97
2022-11-07T03:41:07.005Z,37.97
2022-11-07T03:42:06.993Z,38.17
2022-11-07T03:43:06.976Z,37.87
2022-11-07T03:44:06.972Z,37.77
2022-11-07T03:45:06.959Z,38.25
2022-11-07T03:46:06.962Z,37.67
2022-11-07T03:47:06.931Z,38.17
2022-11-07T03:48:06.922Z,37.87
2022-11-07T03:49:06.909Z,37.87
2022-11-07T03:50:06.899Z,37.67
2022-11-07T03:51:06.887Z,37.75
2022-11-07T03:52:06.892Z,37.77
2022-11-07T03:53:06.865Z,37.85
2022-11-07T03:54:06.854Z,38.17
2022-11-07T03:55:06.845Z,37.97
2022-11-07T03:56:06.980Z,37.87
2022-11-07T03:57:06.824Z,37.87
2022-11-07T03:58:06.816Z,37.77
2022-11-07T03:59:06.798Z,37.77
2022-11-07T04:00:06.788Z,37.77
2022-11-07T04:01:06.776Z,37.77
2022-11-07T04:02:06.974Z,38.17
2022-11-07T04:03:06.754Z,37.87
2022-11-07T04:04:06.772Z,37.57
2022-11-07T04:05:06.737Z,37.77
2022-11-07T04:06:06.721Z,37.85
2022-11-07T04:07:06.710Z,37.77
2022-11-07T04:08:06.700Z,37.85
2022-11-07T04:09:06.688Z,37.87
2022-11-07T04:10:06.684Z,38.27
2022-11-07T04:11:06.666Z,37.85
2022-11-07T04:12:06.673Z,37.87
2022-11-07T04:13:06.644Z,37.77
2022-11-07T04:14:06.631Z,37.85
2022-11-07T04:15:06.621Z,37.87
2022-11-07T04:16:06.632Z,38.17
2022-11-07T04:17:06.599Z,37.77
2022-11-07T04:18:06.594Z,38.15
2022-11-07T04:19:06.577Z,37.67
2022-11-07T04:20:06.565Z,37.87
2022-11-07T04:21:06.555Z,38.17
2022-11-07T04:22:06.551Z,38.17
2022-11-07T04:23:06.534Z,37.87
2022-11-07T04:24:06.522Z,38.07
2022-11-07T04:25:06.521Z,37.97
2022-11-07T04:26:06.499Z,38.17
2022-11-07T04:27:06.489Z,38.15
2022-11-07T04:28:06.512Z,38.05
2022-11-07T04:29:06.467Z,38.17
2022-11-07T04:30:06.455Z,37.67
2022-11-07T04:31:06.444Z,37.85
2022-11-07T04:32:06.435Z,38.17
2022-11-07T04:33:06.425Z,37.75
2022-11-07T04:34:06.441Z,38.15
2022-11-07T04:35:06.401Z,37.77
2022-11-07T04:36:06.393Z,37.97
2022-11-07T04:37:06.379Z,37.95
2022-11-07T04:38:06.366Z,38.17
2022-11-07T04:39:06.356Z,38.15
2022-11-07T04:40:06.365Z,37.75
2022-11-07T04:41:06.333Z,38.17
2022-11-07T04:42:06.322Z,38.17
2022-11-07T04:43:06.317Z,38.17
2022-11-07T04:44:06.421Z,38.15
2022-11-07T04:45:06.288Z,37.97
2022-11-07T04:46:06.285Z,38.17
2022-11-07T04:47:06.269Z,37.97
2022-11-07T04:48:06.258Z,38.17
2022-11-07T04:49:06.247Z,37.97
2022-11-07T04:50:06.234Z,37.95
2022-11-07T04:51:06.227Z,38.15
2022-11-07T04:52:06.228Z,38.15
2022-11-07T04:53:06.200Z,38.07
2022-11-07T04:54:06.190Z,37.97
2022-11-07T04:55:06.180Z,37.97
2022-11-07T04:56:06.166Z,37.75
2022-11-07T04:57:06.156Z,38.17
2022-11-07T04:58:06.154Z,37.97
2022-11-07T04:59:06.137Z,37.95
2022-11-07T05:00:06.140Z,37.77
2022-11-07T05:01:06.111Z,38.17
2022-11-07T05:02:06.238Z,37.97
2022-11-07T05:03:06.160Z,38.05
2022-11-07T05:04:06.098Z,37.97
2022-11-07T05:05:06.088Z,37.97
2022-11-07T05:06:06.057Z,37.85
2022-11-07T05:07:06.047Z,37.97
2022-11-07T05:08:06.035Z,37.97
2022-11-07T05:09:06.026Z,37.97
2022-11-07T05:10:09.661Z,37.97
2022-11-07T05:11:07.000Z,37.97
2022-11-07T05:12:05.992Z,38.07
2022-11-07T05:13:05.982Z,38.17
2022-11-07T05:14:05.967Z,38.17
2022-11-07T05:15:05.956Z,37.97
2022-11-07T05:16:05.975Z,37.87
2022-11-07T05:17:05.934Z,37.97
2022-11-07T05:18:05.923Z,37.87
2022-11-07T05:19:05.912Z,37.87
2022-11-07T05:20:05.906Z,37.85
2022-11-07T05:21:05.891Z,37.87
2022-11-07T05:22:05.905Z,37.77
2022-11-07T05:23:05.872Z,37.87
2022-11-07T05:24:05.857Z,37.95
2022-11-07T05:25:05.845Z,37.95
2022-11-07T05:26:05.836Z,37.85
2022-11-07T05:27:05.823Z,37.87
2022-11-07T05:28:05.827Z,37.97
2022-11-07T05:29:05.805Z,37.97
2022-11-07T05:30:05.792Z,37.87
2022-11-07T05:31:05.778Z,37.87
2022-11-07T05:32:05.883Z,37.77
2022-11-07T05:33:05.757Z,37.95
2022-11-07T05:34:07.106Z,37.77
2022-11-07T05:35:05.770Z,37.87
2022-11-07T05:36:05.724Z,37.97
2022-11-07T05:37:05.713Z,37.77
2022-11-07T05:38:05.701Z,37.97
2022-11-07T05:39:05.691Z,37.95
2022-11-07T05:40:05.686Z,37.97
2022-11-07T05:41:05.668Z,37.87
2022-11-07T05:42:05.658Z,37.87
2022-11-07T05:43:05.646Z,37.97
2022-11-07T05:44:05.636Z,37.77
2022-11-07T05:45:05.624Z,37.85
2022-11-07T05:46:05.647Z,37.87
2022-11-07T05:47:05.602Z,37.87
2022-11-07T05:48:05.610Z,38.15
2022-11-07T05:49:05.579Z,37.97
2022-11-07T05:50:05.568Z,37.97
2022-11-07T05:51:05.556Z,37.75
2022-11-07T05:52:05.554Z,37.97
2022-11-07T05:53:05.592Z,37.77
2022-11-07T05:54:05.524Z,37.77
2022-11-07T05:55:05.513Z,37.97
2022-11-07T05:56:05.503Z,37.97
2022-11-07T05:57:05.491Z,37.97
2022-11-07T05:58:07.097Z,37.97
2022-11-07T05:59:05.468Z,37.97
2022-11-07T06:00:05.459Z,37.97
2022-11-07T06:01:05.447Z,37.87
2022-11-07T06:02:05.571Z,37.87
2022-11-07T06:03:05.518Z,37.97
2022-11-07T06:04:05.436Z,37.97
2022-11-07T06:05:05.408Z,37.85
2022-11-07T06:06:05.391Z,37.97
2022-11-07T06:07:05.380Z,37.77
2022-11-07T06:08:05.369Z,37.77
2022-11-07T06:09:05.358Z,37.87
2022-11-07T06:10:05.352Z,37.87
2022-11-07T06:11:05.336Z,37.87
2022-11-07T06:12:05.325Z,37.87
2022-11-07T06:13:05.316Z,37.97
2022-11-07T06:14:05.304Z,37.77
2022-11-07T06:15:05.293Z,37.85
2022-11-07T06:16:05.312Z,38.54
2022-11-07T06:17:05.270Z,37.95
2022-11-07T06:18:05.258Z,37.87
2022-11-07T06:19:05.250Z,37.97
2022-11-07T06:20:05.338Z,37.87
2022-11-07T06:21:05.229Z,37.97
2022-11-07T06:22:05.247Z,38.76
2022-11-07T06:23:05.204Z,37.97
2022-11-07T06:24:05.217Z,37.87
2022-11-07T06:25:05.181Z,37.97
2022-11-07T06:26:05.170Z,38.07
2022-11-07T06:27:05.162Z,37.97
2022-11-07T06:28:05.173Z,37.77
2022-11-07T06:29:05.140Z,37.97
2022-11-07T06:30:05.128Z,37.87
2022-11-07T06:31:05.121Z,37.87
2022-11-07T06:32:05.105Z,37.77
2022-11-07T06:33:05.093Z,37.85
2022-11-07T06:34:05.119Z,37.77
2022-11-07T06:35:05.071Z,37.77
2022-11-07T06:36:05.122Z,37.77
2022-11-07T06:37:05.049Z,37.97
2022-11-07T06:38:05.037Z,37.87
2022-11-07T06:39:05.026Z,37.87
2022-11-07T06:40:05.021Z,37.77
2022-11-07T06:41:05.008Z,37.87
2022-11-07T06:42:04.993Z,37.87
2022-11-07T06:43:04.983Z,37.77
2022-11-07T06:44:04.971Z,37.77
2022-11-07T06:45:04.960Z,37.97
2022-11-07T06:46:04.979Z,37.77
2022-11-07T06:47:04.941Z,37.87
2022-11-07T06:48:04.927Z,37.87
2022-11-07T06:49:04.916Z,38.07
2022-11-07T06:50:04.904Z,37.87
2022-11-07T06:51:04.893Z,37.87
2022-11-07T06:52:04.903Z,38.07
2022-11-07T06:53:04.877Z,37.87
2022-11-07T06:54:04.861Z,37.77
2022-11-07T06:55:04.851Z,37.77
2022-11-07T06:56:04.837Z,37.77
2022-11-07T06:57:04.832Z,37.97
2022-11-07T06:58:04.827Z,37.87
2022-11-07T06:59:04.812Z,37.87
2022-11-07T07:00:04.794Z,37.87
2022-11-07T07:01:04.915Z,37.87
2022-11-07T07:02:04.881Z,37.77
2022-11-07T07:03:04.988Z,37.87
2022-11-07T07:04:04.754Z,37.77
2022-11-07T07:05:04.738Z,37.85
2022-11-07T07:06:04.729Z,37.77
2022-11-07T07:07:04.716Z,37.87
2022-11-07T07:08:04.721Z,37.77
2022-11-07T07:09:04.695Z,37.87
2022-11-07T07:10:04.703Z,37.87
2022-11-07T07:11:04.672Z,37.77
2022-11-07T07:12:04.661Z,37.87
2022-11-07T07:13:04.650Z,37.77
2022-11-07T07:14:10.268Z,37.87
2022-11-07T07:15:05.633Z,38.17
2022-11-07T07:16:04.617Z,37.97
2022-11-07T07:17:04.606Z,37.87
2022-11-07T07:18:04.595Z,37.67
2022-11-07T07:19:04.585Z,38.17
2022-11-07T07:20:04.574Z,37.77
2022-11-07T07:21:04.569Z,37.97
2022-11-07T07:22:04.549Z,37.85
2022-11-07T07:23:05.807Z,37.87
2022-11-07T07:24:04.638Z,37.87
2022-11-07T07:25:04.517Z,37.77
2022-11-07T07:26:04.506Z,37.85
2022-11-07T07:27:04.515Z,37.87
2022-11-07T07:28:04.483Z,37.67
2022-11-07T07:29:04.472Z,37.87
2022-11-07T07:30:04.461Z,37.77
2022-11-07T07:31:04.451Z,37.97
2022-11-07T07:32:04.445Z,37.67
2022-11-07T07:33:04.435Z,37.77
2022-11-07T07:34:04.421Z,37.77
2022-11-07T07:35:04.406Z,38.35
2022-11-07T07:36:04.398Z,37.67
2022-11-07T07:37:04.385Z,37.67
2022-11-07T07:38:04.374Z,38.07
2022-11-07T07:39:04.368Z,37.95
2022-11-07T07:40:04.479Z,38.27
2022-11-07T07:41:04.341Z,37.85
2022-11-07T07:42:04.331Z,37.95
2022-11-07T07:43:04.318Z,37.67
2022-11-07T07:44:04.307Z,38.05
2022-11-07T07:45:04.301Z,37.97
2022-11-07T07:46:04.290Z,38.35
2022-11-07T07:47:09.890Z,38.96
2022-11-07T07:48:05.262Z,37.87
2022-11-07T07:49:04.252Z,37.85
2022-11-07T07:50:04.242Z,38.46
2022-11-07T07:51:04.236Z,38.27
2022-11-07T07:52:04.220Z,38.56
2022-11-07T07:53:08.853Z,38.56
2022-11-07T07:54:05.194Z,38.15
2022-11-07T07:55:04.185Z,38.37
2022-11-07T07:56:04.285Z,37.77
2022-11-07T07:57:04.170Z,37.35
2022-11-07T07:58:04.152Z,37.55
2022-11-07T07:59:04.143Z,38.45
2022-11-07T08:00:04.130Z,37.75
2022-11-07T08:01:04.173Z,37.85
2022-11-07T08:02:04.241Z,38.17
2022-11-07T08:03:04.108Z,37.45
2022-11-07T08:04:04.088Z,38.17
2022-11-07T08:05:04.100Z,37.55
2022-11-07T08:06:04.064Z,37.75
2022-11-07T08:07:04.187Z,37.25
2022-11-07T08:08:04.041Z,37.17
2022-11-07T08:09:04.039Z,37.45
2022-11-07T08:10:27.079Z,37.25
2022-11-07T08:11:05.007Z,37.35
2022-11-07T08:12:04.107Z,37.45
2022-11-07T08:13:03.990Z,37.65
2022-11-07T08:14:03.974Z,36.83
2022-11-07T08:15:03.968Z,37.02
2022-11-07T08:16:03.953Z,36.92
2022-11-07T08:17:03.941Z,36.42
2022-11-07T08:18:03.956Z,36.52
2022-11-07T08:19:03.919Z,37.02
2022-11-07T08:20:03.908Z,36.80
2022-11-07T08:21:03.903Z,36.50
2022-11-07T08:22:03.886Z,36.50
2022-11-07T08:23:03.875Z,36.30
2022-11-07T08:24:03.865Z,36.60
2022-11-07T08:25:03.852Z,36.80
2022-11-07T08:26:03.842Z,36.40
2022-11-07T08:27:03.836Z,36.60
2022-11-07T08:28:03.933Z,36.30
2022-11-07T08:29:03.814Z,36.80
2022-11-07T08:30:03.798Z,36.72
2022-11-07T08:31:03.792Z,36.52
2022-11-07T08:32:03.776Z,37.02
2022-11-07T08:33:03.795Z,36.92
2022-11-07T08:34:03.820Z,36.82
2022-11-07T08:35:03.741Z,37.02
2022-11-07T08:36:03.734Z,36.92
2022-11-07T08:37:03.720Z,36.82
2022-11-07T08:38:03.709Z,37.02
2022-11-07T08:39:03.702Z,37.12
2022-11-07T08:40:03.688Z,37.02
2022-11-07T08:41:03.675Z,37.12
2022-11-07T08:42:03.663Z,36.82
2022-11-07T08:43:03.653Z,36.82
2022-11-07T08:44:03.683Z,37.12
2022-11-07T08:45:03.639Z,37.12
2022-11-07T08:46:03.621Z,37.12
2022-11-07T08:47:08.303Z,37.12
2022-11-07T08:48:04.596Z,37.04
2022-11-07T08:49:03.591Z,37.12
2022-11-07T08:50:03.575Z,36.82
2022-11-07T08:51:03.570Z,36.82
2022-11-07T08:52:03.555Z,36.92
2022-11-07T08:53:03.547Z,36.70
2022-11-07T08:54:03.537Z,36.62
2022-11-07T08:55:03.521Z,37.02
2022-11-07T08:56:03.509Z,36.60
2022-11-07T08:57:03.512Z,36.80
2022-11-07T08:58:03.507Z,36.60
2022-11-07T08:59:03.478Z,36.30
2022-11-07T09:00:03.566Z,36.90
2022-11-07T09:01:03.485Z,36.42
2022-11-07T09:02:47.453Z,36.62
2022-11-07T09:04:04.618Z,36.82
2022-11-07T09:05:03.410Z,36.92
2022-11-07T09:06:03.398Z,36.82
2022-11-07T09:07:03.388Z,37.12
2022-11-07T09:08:03.376Z,37.12
2022-11-07T09:09:03.372Z,37.21
2022-11-07T09:10:03.353Z,36.32
2022-11-07T09:11:03.348Z,36.52
2022-11-07T09:12:03.333Z,36.62
2022-11-07T09:13:03.321Z,36.92
2022-11-07T09:14:03.312Z,36.52
2022-11-07T09:15:03.321Z,36.52
2022-11-07T09:16:03.309Z,36.62
2022-11-07T09:17:03.280Z,36.52
2022-11-07T09:18:03.266Z,36.52
2022-11-07T09:19:03.257Z,36.52
2022-11-07T09:20:03.242Z,36.72
2022-11-07T09:21:03.240Z,36.52
2022-11-07T09:22:03.225Z,36.52
2022-11-07T09:23:03.210Z,36.42
2022-11-07T09:24:03.216Z,36.42
2022-11-07T09:25:03.189Z,36.52
2022-11-07T09:26:03.180Z,36.42
2022-11-07T09:27:03.174Z,36.52
2022-11-07T09:28:03.174Z,36.72
2022-11-07T09:29:03.144Z,36.52
2022-11-07T09:30:03.134Z,36.42
2022-11-07T09:31:03.130Z,36.42
2022-11-07T09:32:23.405Z,36.52
2022-11-07T09:33:04.120Z,36.62
2022-11-07T09:34:03.086Z,36.42
2022-11-07T09:35:05.140Z,36.62
2022-11-07T09:36:03.068Z,36.42
2022-11-07T09:37:03.063Z,36.82
2022-11-07T09:38:03.043Z,36.82
2022-11-07T09:39:03.039Z,36.82
2022-11-07T09:40:03.023Z,36.72
2022-11-07T09:41:03.010Z,36.90
2022-11-07T09:42:03.003Z,36.60
2022-11-07T09:43:02.986Z,37.02
2022-11-07T09:44:04.791Z,36.80
2022-11-07T09:45:02.972Z,36.60
2022-11-07T09:46:02.958Z,36.60
2022-11-07T09:47:02.944Z,36.60
2022-11-07T09:48:02.966Z,36.60
2022-11-07T09:49:02.921Z,36.70
2022-11-07T09:50:02.913Z,36.00
2022-11-07T09:51:02.913Z,36.58
2022-11-07T09:52:02.889Z,36.38
2022-11-07T09:53:02.878Z,36.58
2022-11-07T09:54:02.868Z,36.68
2022-11-07T09:55:02.865Z,37.08
2022-11-07T09:56:02.846Z,36.88
2022-11-07T09:57:02.848Z,36.87
2022-11-07T09:58:02.821Z,35.97
2022-11-07T09:59:02.811Z,36.07
2022-11-07T10:00:02.799Z,36.07
2022-11-07T10:01:02.839Z,35.77
2022-11-07T10:02:02.832Z,36.47
2022-11-07T10:03:02.772Z,36.07
2022-11-07T10:04:24.617Z,35.87
2022-11-07T10:05:03.743Z,35.87
2022-11-07T10:06:02.733Z,35.67
2022-11-07T10:07:02.726Z,36.27
2022-11-07T10:08:02.712Z,36.57
2022-11-07T10:09:02.706Z,36.05
2022-11-07T10:10:02.689Z,35.66
2022-11-07T10:11:02.678Z,35.66
2022-11-07T10:12:02.666Z,35.77
2022-11-07T10:13:02.656Z,35.75
2022-11-07T10:14:02.644Z,35.85
2022-11-07T10:15:02.639Z,35.85
2022-11-07T10:16:02.621Z,35.66
2022-11-07T10:17:02.612Z,36.05
2022-11-07T10:18:02.599Z,35.66
2022-11-07T10:19:02.589Z,36.15
2022-11-07T10:20:02.602Z,35.85
2022-11-07T10:21:31.127Z,35.85
2022-11-07T10:22:03.554Z,36.23
2022-11-07T10:23:02.545Z,35.85
2022-11-07T10:24:02.536Z,35.74
2022-11-07T10:25:02.521Z,36.04
2022-11-07T10:26:02.511Z,36.13
2022-11-07T10:27:02.506Z,35.74
2022-11-07T10:28:02.490Z,35.94
2022-11-07T10:29:02.479Z,35.94
2022-11-07T10:30:02.468Z,35.83
2022-11-07T10:31:02.455Z,36.23
2022-11-07T10:32:02.445Z,36.23
2022-11-07T10:33:02.443Z,35.94
2022-11-07T10:34:02.426Z,36.33
2022-11-07T10:35:02.411Z,36.41
2022-11-07T10:36:02.425Z,36.11
2022-11-07T10:37:02.390Z,36.22
2022-11-07T10:38:02.378Z,36.22
2022-11-07T10:39:02.389Z,36.11
2022-11-07T10:40:02.358Z,36.02
2022-11-07T10:41:02.346Z,36.02
2022-11-07T10:42:02.335Z,36.02
2022-11-07T10:43:02.352Z,35.62
2022-11-07T10:44:02.313Z,35.82
2022-11-07T10:45:02.308Z,36.11
2022-11-07T10:46:02.290Z,36.11
2022-11-07T10:47:02.279Z,36.11
2022-11-07T10:48:02.267Z,36.32
2022-11-07T10:49:02.260Z,36.22
2022-11-07T10:50:02.246Z,35.71
2022-11-07T10:51:02.241Z,35.90
2022-11-07T10:52:02.362Z,35.71
2022-11-07T10:53:02.213Z,35.71
2022-11-07T10:54:02.205Z,35.71
2022-11-07T10:55:02.193Z,35.50
2022-11-07T10:56:02.179Z,35.60
2022-11-07T10:57:02.181Z,35.71
2022-11-07T10:58:02.158Z,35.80
2022-11-07T10:59:02.148Z,35.60
2022-11-07T11:00:02.137Z,35.80
2022-11-07T11:01:02.275Z,36.10
2022-11-07T11:02:02.198Z,36.40
2022-11-07T11:03:02.115Z,36.10
2022-11-07T11:04:02.094Z,35.90
2022-11-07T11:05:02.081Z,36.10
2022-11-07T11:06:02.071Z,36.10
2022-11-07T11:07:02.061Z,36.40
2022-11-07T11:08:02.063Z,36.40
2022-11-07T11:09:02.046Z,36.10
2022-11-07T11:10:02.026Z,36.30
2022-11-07T11:11:02.014Z,36.10
2022-11-07T11:12:02.004Z,35.90
2022-11-07T11:13:01.994Z,36.10
2022-11-07T11:14:01.983Z,35.60
2022-11-07T11:15:01.976Z,35.60
2022-11-07T11:16:05.688Z,36.10
2022-11-07T11:17:01.992Z,36.00
2022-11-07T11:18:01.938Z,35.80
2022-11-07T11:19:01.929Z,35.78
2022-11-07T11:20:01.917Z,35.29
2022-11-07T11:21:01.911Z,34.89
2022-11-07T11:22:05.938Z,34.69
2022-11-07T11:23:02.883Z,34.89
2022-11-07T11:24:01.898Z,34.80
2022-11-07T11:25:01.865Z,34.99
2022-11-07T11:26:01.854Z,35.29
2022-11-07T11:27:01.846Z,34.89
2022-11-07T11:28:01.828Z,34.97
2022-11-07T11:29:01.816Z,34.80
2022-11-07T11:30:01.809Z,35.19
2022-11-07T11:31:01.795Z,34.80
2022-11-07T11:32:01.796Z,35.69
2022-11-07T11:33:01.778Z,35.19
2022-11-07T11:34:01.763Z,35.39
2022-11-07T11:35:01.754Z,34.89
2022-11-07T11:36:01.741Z,35.49
2022-11-07T11:37:01.730Z,35.78
2022-11-07T11:38:01.717Z,35.58
2022-11-07T11:39:01.716Z,35.49
2022-11-07T11:40:01.716Z,35.19
2022-11-07T11:41:07.618Z,34.80
2022-11-07T11:42:02.672Z,35.29
2022-11-07T11:43:01.662Z,35.49
2022-11-07T11:44:01.651Z,35.29
2022-11-07T11:45:01.662Z,35.49
2022-11-07T11:46:01.629Z,35.49
2022-11-07T11:47:01.619Z,35.49
2022-11-07T11:48:01.608Z,35.58
2022-11-07T11:49:01.596Z,35.58
2022-11-07T11:50:01.595Z,34.99
2022-11-07T11:51:01.580Z,34.99
2022-11-07T11:52:01.566Z,34.99
2022-11-07T11:53:01.552Z,34.99
2022-11-07T11:54:01.560Z,35.09
2022-11-07T11:55:01.557Z,35.07
2022-11-07T11:56:01.544Z,35.37
2022-11-07T11:57:01.516Z,35.07
2022-11-07T11:58:01.496Z,35.17
2022-11-07T11:59:01.486Z,34.97
2022-11-07T12:00:01.475Z,34.97
2022-11-07T12:01:01.464Z,34.88
2022-11-07T12:02:01.517Z,34.88
2022-11-07T12:03:01.447Z,34.78
2022-11-07T12:04:03.986Z,35.07
2022-11-07T12:05:02.418Z,34.97
2022-11-07T12:06:01.408Z,35.07
2022-11-07T12:07:01.398Z,34.97
2022-11-07T12:08:01.388Z,35.17
2022-11-07T12:09:01.382Z,35.27
2022-11-07T12:10:01.364Z,34.97
2022-11-07T12:11:01.354Z,35.07
2022-11-07T12:12:01.361Z,34.78
2022-11-07T12:13:01.331Z,34.97
2022-11-07T12:14:01.322Z,35.07
2022-11-07T12:15:01.316Z,35.07
2022-11-07T12:16:01.298Z,35.17
2022-11-07T12:17:01.287Z,35.07
2022-11-07T12:18:01.276Z,35.07
2022-11-07T12:19:01.265Z,34.97
2022-11-07T12:20:01.257Z,34.88
2022-11-07T12:21:01.250Z,34.78
2022-11-07T12:22:01.233Z,34.97
2022-11-07T12:23:01.224Z,34.88
2022-11-07T12:24:01.213Z,34.78
2022-11-07T12:25:01.200Z,34.88
2022-11-07T12:26:01.191Z,34.88
2022-11-07T12:27:01.185Z,34.80
2022-11-07T12:28:01.188Z,34.78
2022-11-07T12:29:01.156Z,35.17
2022-11-07T12:30:01.144Z,35.29
2022-11-07T12:31:01.142Z,35.29
2022-11-07T12:32:01.123Z,35.97
2022-11-07T12:33:01.127Z,35.98
2022-11-07T12:34:01.114Z,35.78
2022-11-07T12:35:01.096Z,34.78
2022-11-07T12:36:01.079Z,35.47
2022-11-07T12:37:01.068Z,35.17
2022-11-07T12:38:01.060Z,34.89
2022-11-07T12:39:01.053Z,35.47
2022-11-07T12:40:01.035Z,35.27
2022-11-07T12:41:01.025Z,35.86
2022-11-07T12:42:01.014Z,35.78
2022-11-07T12:43:01.002Z,35.97
2022-11-07T12:44:01.006Z,35.97
2022-11-07T12:45:00.985Z,35.97
2022-11-07T12:46:00.974Z,35.69
2022-11-07T12:47:00.958Z,35.67
2022-11-07T12:48:00.948Z,36.28
2022-11-07T12:49:00.938Z,36.18
2022-11-07T12:50:00.925Z,36.07
2022-11-07T12:51:00.940Z,36.08
2022-11-07T12:52:00.905Z,36.18
2022-11-07T12:53:00.892Z,36.08